Terminal Aerodrome Forecast
Issued by NWS Jacksonville, FL

Home | Current Version | Previous Version | Text Only | Print | Product List | Glossary On
Versions: 1 2 3 4 5 6 7 8 9 10 11 12 13 14 15 16 17 18 19 20 21 22 23 24
000
FTUS42 KJAX 171100
TAFSSI
TAF
KSSI 171120Z 1712/1812 04014G22KT P6SM OVC018
     FM171600 05015G25KT P6SM SCT020 BKN250
      TEMPO 1716/1718 BKN020
     FM172100 05014G24KT P6SM BKN030
     FM180100 06012G20KT P6SM BKN025
     FM180800 06012G20KT P6SM VCSH OVC020=

USA.gov is the U.S. government's official web portal to all federal, state and local government web resources and services.